Time;durP1;ratioP1;P1;durP2;ratioP2;P2;SDS_P1;SDS_P2;PMS_P1;PMS_P2;Temp;Humidity;BMP_temperature;BMP_pressure;BME280_temperature;BME280_humidity;BME280_pressure;Samples;Min_cycle;Max_cycle;Signal;HPM_P1;HPM_P2
2021/01/17 00:02:17;;;;;;;22.37;15.87;;;-1.70;99.90;;;-0.83;92.95;100518.41;5051657;28;20295;-63
2021/01/17 00:04:44;;;;;;;22.97;16.53;;;-1.80;99.90;;;-0.95;93.11;100524.81;5051326;28;20744;-63
2021/01/17 00:07:11;;;;;;;21.80;15.23;;;-1.80;99.90;;;-0.86;93.16;100525.81;5051894;28;20205;-63
2021/01/17 00:09:39;;;;;;;22.30;14.47;;;-1.80;99.90;;;-0.80;92.64;100522.59;5051252;28;20596;-63
2021/01/17 00:12:08;;;;;;;20.67;14.33;;;-1.80;99.90;;;-0.83;92.04;100507.00;5051617;28;20236;-63
2021/01/17 00:14:36;;;;;;;18.80;12.87;;;-1.80;99.90;;;-0.82;91.86;100509.53;5051582;28;20202;-63
2021/01/17 00:17:04;;;;;;;19.60;13.33;;;-1.80;99.90;;;-0.86;92.24;100508.09;5051584;28;20221;-62
2021/01/17 00:19:32;;;;;;;19.57;13.20;;;-1.80;99.90;;;-0.99;92.86;100506.72;5051636;28;20214;-62
2021/01/17 00:21:59;;;;;;;19.13;12.10;;;-1.80;99.90;;;-1.01;92.68;100511.28;5053985;28;20258;-63
2021/01/17 00:24:26;;;;;;;18.17;12.13;;;-1.80;99.90;;;-0.97;92.64;100507.41;5051332;28;20684;-63
2021/01/17 00:26:54;;;;;;;18.23;11.90;;;-1.90;99.90;;;-0.87;92.14;100498.53;5051460;28;20198;-63
2021/01/17 00:29:21;;;;;;;18.40;12.30;;;-1.90;99.90;;;-0.95;92.23;100503.66;5051218;28;20205;-63
2021/01/17 00:31:51;;;;;;;19.43;13.10;;;-1.90;99.90;;;-0.93;92.50;100507.00;5051292;28;20627;-63
2021/01/17 00:34:19;;;;;;;17.40;12.00;;;-1.90;99.90;;;-0.91;92.57;100498.94;5050949;28;20247;-64
2021/01/17 00:36:46;;;;;;;20.43;13.30;;;-1.90;99.90;;;-0.82;92.45;100501.59;5050873;28;20315;-63
2021/01/17 00:39:14;;;;;;;17.73;12.00;;;-1.90;99.90;;;-0.76;92.32;100495.72;5051060;28;20609;-63
2021/01/17 00:41:41;;;;;;;18.43;12.03;;;-1.80;99.90;;;-0.70;92.26;100497.00;5051200;28;20295;-63
2021/01/17 00:44:08;;;;;;;17.50;12.23;;;-1.70;99.90;;;-0.66;92.14;100488.63;5051030;28;20636;-62
2021/01/17 00:46:38;;;;;;;16.03;11.73;;;-1.70;99.90;;;-0.65;91.99;100492.97;5051115;28;20292;-63
2021/01/17 00:49:07;;;;;;;15.13;11.13;;;-1.70;99.90;;;-0.68;91.76;100490.59;5051129;28;20609;-63
2021/01/17 00:51:41;;;;;;;17.00;10.93;;;-1.70;99.90;;;-0.55;90.47;100483.19;5054631;28;20288;-63
2021/01/17 00:54:10;;;;;;;14.47;10.23;;;-1.60;99.90;;;-0.65;89.99;100487.66;5054085;28;20189;-64
2021/01/17 00:56:38;;;;;;;11.70;8.77;;;-1.60;99.90;;;-0.57;89.70;100481.66;5054476;28;20310;-63
2021/01/17 00:59:05;;;;;;;13.23;9.47;;;-1.60;99.90;;;-0.57;88.69;100482.50;5054670;28;20609;-63
2021/01/17 01:01:39;;;;;;;14.37;9.67;;;-1.60;99.90;;;-0.41;87.72;100481.94;5054603;28;20248;-62
2021/01/17 01:04:07;;;;;;;13.53;9.20;;;-1.50;99.90;;;-0.48;87.62;100476.38;5054456;28;20200;-63
2021/01/17 01:06:35;;;;;;;13.73;9.60;;;-1.50;99.90;;;-0.49;87.00;100479.16;5054465;28;20228;-63
2021/01/17 01:09:08;;;;;;;13.40;8.67;;;-1.40;99.90;;;-0.45;87.08;100478.72;5053995;28;20240;-62
2021/01/17 01:11:35;;;;;;;14.50;9.20;;;-1.50;99.90;;;-0.33;85.51;100480.25;5054197;28;20626;-62
2021/01/17 01:14:04;;;;;;;12.53;8.20;;;-1.40;99.90;;;-0.27;85.06;100469.06;5053861;28;20291;-63
2021/01/17 01:16:32;;;;;;;13.60;8.60;;;-1.30;99.90;;;-0.19;84.39;100473.66;5054260;28;20308;-63
2021/01/17 01:18:59;;;;;;;12.27;8.60;;;-1.30;99.90;;;-0.41;85.43;100469.53;5054013;28;20734;-63
2021/01/17 01:21:29;;;;;;;10.67;8.27;;;-1.30;99.90;;;-0.38;85.40;100471.06;5054222;28;20581;-63
2021/01/17 01:23:57;;;;;;;11.83;8.07;;;-1.30;99.90;;;-0.36;85.26;100462.00;5053499;28;20255;-62
2021/01/17 01:26:27;;;;;;;11.30;7.73;;;-1.30;99.90;;;-0.29;84.76;100459.63;5047427;28;20731;-63
2021/01/17 01:28:56;;;;;;;12.07;7.87;;;-1.30;99.90;;;-0.25;84.50;100453.06;5042404;28;20229;-63
2021/01/17 01:31:26;;;;;;;11.47;8.07;;;-1.30;99.90;;;-0.27;83.94;100450.56;5042629;28;20676;-62
2021/01/17 01:33:57;;;;;;;11.07;7.70;;;-1.30;99.90;;;-0.37;84.62;100455.03;5044470;28;20283;-61
2021/01/17 01:36:27;;;;;;;11.73;7.70;;;-1.30;99.90;;;-0.27;84.08;100457.69;5044340;28;20472;-61
2021/01/17 01:38:55;;;;;;;10.47;7.23;;;-1.30;99.90;;;-0.42;84.51;100449.34;5043997;28;20226;-61
2021/01/17 01:41:28;;;;;;;10.30;7.27;;;-1.30;99.90;;;-0.32;84.25;100441.41;5044980;28;20280;-62
2021/01/17 01:43:55;;;;;;;10.27;7.17;;;-1.30;99.90;;;-0.54;84.46;100437.25;5047115;28;20253;-62
2021/01/17 01:46:25;;;;;;;11.10;7.70;;;-1.40;99.90;;;-0.66;84.81;100433.09;5047813;28;20226;-61
2021/01/17 01:48:55;;;;;;;12.20;7.53;;;-1.40;99.90;;;-0.78;86.85;100430.75;5042760;28;20194;-61
2021/01/17 01:51:24;;;;;;;11.00;8.10;;;-1.50;99.90;;;-0.90;86.76;100431.88;5044042;28;20279;-61
2021/01/17 01:53:54;;;;;;;11.17;7.80;;;-1.60;99.90;;;-0.79;86.65;100427.25;5043258;28;20281;-62
2021/01/17 01:56:24;;;;;;;11.67;7.50;;;-1.70;99.90;;;-0.87;86.76;100418.38;5037845;28;20302;-62
2021/01/17 01:58:54;;;;;;;10.60;7.43;;;-1.70;99.90;;;-0.92;87.71;100416.16;5053734;28;20301;-62
2021/01/17 02:01:23;;;;;;;9.77;7.23;;;-1.70;99.90;;;-0.98;88.03;100410.59;5052681;28;20303;-61
2021/01/17 02:03:52;;;;;;;11.03;7.67;;;-1.80;99.90;;;-0.60;86.00;100413.19;5053480;28;20204;-62
2021/01/17 02:06:22;;;;;;;10.10;7.00;;;-1.70;99.90;;;-0.78;86.29;100412.25;5044437;28;20291;-61
2021/01/17 02:09:20;;;;;;;9.97;6.97;;;-1.70;99.90;;;-0.88;86.65;100422.81;5042271;28;20328;-62
2021/01/17 02:12:01;;;;;;;9.80;6.77;;;-1.70;99.90;;;-0.93;87.19;100421.59;5046702;28;20641;-61
2021/01/17 02:14:51;;;;;;;10.40;7.30;;;-1.80;99.90;;;-0.88;86.85;100412.25;5043864;28;20212;-61
2021/01/17 02:17:22;;;;;;;11.53;7.63;;;-1.80;99.90;;;-0.80;86.11;100424.75;5043784;28;20295;-61
2021/01/17 02:20:11;;;;;;;11.03;7.23;;;-1.80;99.90;;;-0.72;86.05;100414.31;5048209;28;20193;-62
2021/01/17 02:22:50;;;;;;;11.20;7.43;;;-1.80;99.90;;;-0.63;85.71;100413.47;5052955;28;20185;-62
2021/01/17 02:25:20;;;;;;;10.00;7.57;;;-1.70;99.90;;;-0.78;85.98;100409.59;5052678;28;20190;-62
2021/01/17 02:27:56;;;;;;;9.53;6.93;;;-1.70;99.90;;;-0.68;85.87;100405.97;5052995;28;20184;-61
2021/01/17 02:30:27;;;;;;;9.47;7.17;;;-1.70;99.90;;;-0.68;85.61;100405.13;5053004;28;20275;-62
2021/01/17 02:32:59;;;;;;;10.23;7.60;;;-1.70;99.90;;;-0.81;85.97;100408.06;5053092;28;20210;-62
2021/01/17 02:35:32;;;;;;;11.37;7.60;;;-1.70;99.90;;;-1.00;87.36;100405.47;5052784;28;20573;-62
2021/01/17 02:38:15;;;;;;;10.67;7.20;;;-1.70;99.90;;;-0.79;86.21;100398.19;5052302;28;20666;-61
2021/01/17 02:40:56;;;;;;;12.20;8.43;;;-1.70;99.90;;;-0.88;86.59;100404.31;5052959;28;20276;-61
2021/01/17 02:43:26;;;;;;;10.47;7.53;;;-1.80;99.90;;;-0.70;86.24;100401.78;5048294;28;20186;-61
2021/01/17 02:45:54;;;;;;;10.40;7.13;;;-1.80;99.90;;;-0.64;85.85;100398.59;5032523;28;20653;-61
2021/01/17 02:48:21;;;;;;;10.00;7.13;;;-1.70;99.90;;;-0.75;85.55;100399.59;5032581;28;20376;-61
2021/01/17 02:50:48;;;;;;;10.63;7.30;;;-1.70;99.90;;;-0.84;85.50;100403.06;5032501;28;20266;-61
2021/01/17 02:53:25;;;;;;;9.83;6.93;;;-1.70;99.90;;;-1.00;85.93;100400.16;5032271;28;20580;-62
2021/01/17 02:55:58;;;;;;;11.20;7.10;;;-1.70;99.90;;;-1.10;87.44;100399.34;5032256;28;20255;-62
2021/01/17 02:58:28;;;;;;;8.57;6.30;;;-1.90;99.90;;;-1.03;86.65;100402.25;5032450;28;20202;-62
2021/01/17 03:00:57;;;;;;;10.93;7.50;;;-1.80;99.90;;;-0.86;86.11;100399.72;5032424;28;20237;-63
2021/01/17 03:03:35;;;;;;;10.20;7.93;;;-1.90;99.90;;;-1.03;86.22;100399.63;5032060;28;20666;-62
2021/01/17 03:06:07;;;;;;;11.73;8.77;;;-1.90;99.90;;;-0.91;86.59;100401.13;5032128;28;20257;-63
2021/01/17 03:08:37;;;;;;;13.67;9.47;;;-1.80;99.90;;;-0.83;86.33;100404.72;5031869;28;20190;-62
2021/01/17 03:11:05;;;;;;;10.93;8.33;;;-1.80;99.90;;;-0.84;86.33;100395.13;5033528;28;20255;-62
2021/01/17 03:13:36;;;;;;;9.57;7.43;;;-1.80;99.90;;;-0.90;86.38;100397.50;5050764;28;20549;-63
2021/01/17 03:16:04;;;;;;;9.60;7.33;;;-1.80;99.90;;;-0.94;85.82;100394.31;5051785;28;20229;-62
2021/01/17 03:18:33;;;;;;;10.50;7.70;;;-1.80;99.90;;;-0.96;86.44;100396.25;5051437;28;20675;-62
2021/01/17 03:21:00;;;;;;;9.43;7.50;;;-1.80;99.90;;;-0.88;86.15;100388.44;5051610;28;20621;-62
2021/01/17 03:23:28;;;;;;;9.10;7.03;;;-1.80;99.90;;;-1.13;87.63;100391.66;5052412;28;20213;-62
2021/01/17 03:25:55;;;;;;;10.87;7.97;;;-1.90;99.90;;;-1.34;88.29;100399.72;5052593;28;20631;-62
2021/01/17 03:28:23;;;;;;;10.60;8.10;;;-1.90;99.90;;;-1.07;87.51;100398.22;5051525;28;20283;-62
2021/01/17 03:30:50;;;;;;;10.40;7.90;;;-2.00;99.90;;;-1.03;86.59;100397.78;5051315;28;20245;-63
2021/01/17 03:33:18;;;;;;;10.83;7.90;;;-2.00;99.90;;;-0.89;85.38;100400.00;5051625;28;20299;-62
2021/01/17 03:35:45;;;;;;;9.93;7.33;;;-1.90;99.90;;;-0.75;83.87;100391.66;5051422;28;20291;-62
2021/01/17 03:38:12;;;;;;;9.93;7.43;;;-1.80;99.90;;;-0.89;84.64;100400.00;5050935;28;20228;-61
2021/01/17 03:40:39;;;;;;;9.63;7.60;;;-1.80;99.90;;;-0.96;85.31;100396.25;5051447;28;20201;-62
2021/01/17 03:43:07;;;;;;;9.93;7.23;;;-1.80;99.90;;;-0.88;84.29;100387.63;5051309;28;20644;-62
2021/01/17 03:45:35;;;;;;;9.63;7.27;;;-1.80;99.90;;;-1.16;84.97;100389.31;5051208;28;20739;-62
2021/01/17 03:48:03;;;;;;;9.67;7.17;;;-1.80;99.90;;;-1.08;85.82;100386.00;5051222;28;20798;-63
2021/01/17 03:50:30;;;;;;;9.17;6.87;;;-1.90;99.90;;;-1.10;85.61;100393.22;5051095;28;20720;-63
2021/01/17 03:52:57;;;;;;;10.13;7.27;;;-2.00;99.90;;;-1.16;85.79;100388.47;5051567;28;20236;-62
2021/01/17 03:55:25;;;;;;;9.83;7.77;;;-2.00;99.90;;;-1.16;85.85;100389.31;5051412;28;20207;-63
2021/01/17 03:57:52;;;;;;;10.17;7.27;;;-2.00;99.90;;;-1.30;86.03;100390.56;5051429;28;20308;-63
2021/01/17 04:00:21;;;;;;;8.57;6.70;;;-2.00;99.90;;;-1.41;86.95;100393.34;5051175;28;20692;-62
2021/01/17 04:02:49;;;;;;;8.90;6.27;;;-2.10;99.90;;;-1.00;86.42;100392.25;5051521;28;20650;-62
2021/01/17 04:05:17;;;;;;;9.07;6.80;;;-2.00;99.90;;;-0.79;84.52;100387.59;5051095;28;20201;-62
2021/01/17 04:07:44;;;;;;;9.10;6.30;;;-1.90;99.90;;;-1.00;85.17;100392.25;5051312;28;20199;-62
2021/01/17 04:10:12;;;;;;;9.83;6.53;;;-1.90;99.90;;;-0.96;85.22;100385.69;5051380;28;20293;-62
2021/01/17 04:12:39;;;;;;;10.30;6.90;;;-1.90;99.90;;;-1.11;86.29;100384.44;5051143;28;20319;-62
2021/01/17 04:15:09;;;;;;;8.53;6.17;;;-1.90;99.90;;;-1.10;86.12;100390.56;5051234;28;20304;-62
2021/01/17 04:17:36;;;;;;;10.27;7.13;;;-2.00;99.90;;;-0.95;85.20;100392.66;5051202;28;20316;-62
2021/01/17 04:20:06;;;;;;;10.30;7.03;;;-1.90;99.90;;;-1.08;85.97;100394.72;5051338;28;20206;-63
2021/01/17 04:22:37;;;;;;;10.63;7.00;;;-2.00;99.90;;;-0.84;84.74;100395.13;5050878;28;20669;-62
2021/01/17 04:25:06;;;;;;;9.73;6.60;;;-1.90;99.90;;;-0.81;85.07;100396.66;5054424;28;20216;-62
2021/01/17 04:27:33;;;;;;;9.83;7.00;;;-1.90;99.90;;;-1.04;85.75;100390.00;5055356;28;20295;-62
2021/01/17 04:30:01;;;;;;;9.13;6.97;;;-1.90;99.90;;;-0.97;85.38;100391.94;5055063;28;20305;-62
2021/01/17 04:32:28;;;;;;;9.73;7.10;;;-1.90;99.90;;;-1.19;86.41;100386.97;5054896;28;20258;-63
2021/01/17 04:34:55;;;;;;;10.10;7.00;;;-2.00;99.90;;;-1.29;86.77;100394.91;5054739;28;20668;-63
2021/01/17 04:37:25;;;;;;;9.00;6.50;;;-2.10;99.90;;;-1.17;86.57;100394.75;5054711;28;20254;-62
2021/01/17 04:39:52;;;;;;;9.73;6.53;;;-2.10;99.90;;;-0.89;84.09;100392.06;5054631;28;20208;-62
2021/01/17 04:42:21;;;;;;;9.60;6.70;;;-2.00;99.90;;;-1.29;85.88;100388.75;5054823;28;20735;-62
2021/01/17 04:44:53;;;;;;;9.97;6.90;;;-2.10;99.90;;;-1.19;85.85;100388.75;5055179;28;20208;-62
2021/01/17 04:47:22;;;;;;;10.50;7.10;;;-2.10;99.90;;;-1.51;87.12;100395.16;5054725;28;20227;-62
2021/01/17 04:49:58;;;;;;;9.53;6.40;;;-2.20;99.90;;;-1.68;87.70;100394.97;5054539;28;20286;-62
2021/01/17 04:52:34;;;;;;;8.57;6.17;;;-2.30;99.90;;;-1.67;88.15;100392.19;5054339;28;20720;-63
2021/01/17 04:55:01;;;;;;;10.13;6.57;;;-2.40;99.90;;;-1.95;88.50;100397.41;5054641;28;20529;-62
2021/01/17 04:57:38;;;;;;;10.77;6.97;;;-2.50;99.90;;;-1.96;88.77;100403.66;5054514;28;20790;-62
2021/01/17 05:00:10;;;;;;;10.37;7.30;;;-2.60;99.90;;;-1.99;88.58;100403.91;5054713;28;20189;-62
2021/01/17 05:02:44;;;;;;;9.93;7.40;;;-2.70;99.90;;;-2.00;88.75;100397.81;5054360;28;20279;-63
2021/01/17 05:05:23;;;;;;;11.97;8.63;;;-2.80;99.90;;;-2.00;88.90;100410.16;5054559;28;20257;-63
2021/01/17 05:08:14;;;;;;;10.47;8.17;;;-2.80;99.90;;;-2.16;88.87;100417.72;5054479;28;20212;-63
2021/01/17 05:10:47;;;;;;;11.23;8.27;;;-2.90;99.90;;;-2.10;89.08;100409.28;5054366;28;20288;-63
2021/01/17 05:13:16;;;;;;;10.10;7.27;;;-2.90;99.90;;;-2.29;90.19;100410.06;5054331;28;20300;-63
2021/01/17 05:15:45;;;;;;;11.93;7.40;;;-3.00;99.90;;;-2.35;90.66;100407.09;5054511;28;20430;-62
2021/01/17 05:18:13;;;;;;;11.97;7.60;;;-3.00;99.90;;;-2.32;90.52;100405.06;5054110;28;20220;-62
2021/01/17 05:20:40;;;;;;;9.57;7.57;;;-3.10;99.90;;;-2.25;90.19;100403.56;5054292;28;20204;-62
2021/01/17 05:23:11;;;;;;;10.43;7.27;;;-3.10;99.90;;;-2.33;90.22;100399.91;5054031;28;20294;-62
2021/01/17 05:25:42;;;;;;;11.97;7.17;;;-3.10;99.90;;;-2.27;90.47;100405.50;5054044;28;20288;-61
2021/01/17 05:28:10;;;;;;;9.23;6.87;;;-3.10;99.90;;;-2.23;90.67;100400.78;5054492;28;20207;-61
2021/01/17 05:30:43;;;;;;;10.60;7.13;;;-3.10;99.90;;;-2.33;90.96;100399.91;5054218;28;20258;-62
2021/01/17 05:33:12;;;;;;;9.23;6.87;;;-3.20;99.90;;;-2.47;91.72;100404.53;5054223;28;20192;-61
2021/01/17 05:35:39;;;;;;;10.13;7.03;;;-3.20;99.90;;;-2.47;91.87;100402.88;5053145;28;20232;-62
2021/01/17 05:38:06;;;;;;;8.53;6.57;;;-3.30;99.90;;;-2.38;91.62;100399.47;5053815;28;20225;-62
2021/01/17 05:40:34;;;;;;;10.23;7.17;;;-3.30;99.90;;;-2.28;91.32;100393.25;5053910;28;20249;-61
2021/01/17 05:43:02;;;;;;;8.77;6.50;;;-3.30;99.90;;;-2.45;91.81;100404.41;5053874;28;20203;-62
2021/01/17 05:45:29;;;;;;;9.70;6.70;;;-3.30;99.90;;;-2.41;92.75;100408.47;5053555;28;20614;-61
2021/01/17 05:47:59;;;;;;;12.20;6.93;;;-3.30;99.90;;;-2.41;93.40;100402.34;5053803;28;20283;-61
2021/01/17 05:50:29;;;;;;;10.20;7.20;;;-3.30;99.90;;;-1.83;89.54;100404.25;5053462;28;20285;-61
2021/01/17 05:52:58;;;;;;;10.23;6.67;;;-3.10;99.90;;;-2.04;89.63;100395.56;5053554;28;20227;-62
2021/01/17 05:55:31;;;;;;;9.37;7.00;;;-3.00;99.90;;;-2.36;91.96;100408.91;5053514;28;20250;-62
2021/01/17 05:58:23;;;;;;;9.80;6.60;;;-3.10;99.90;;;-2.02;89.95;100404.19;5053523;28;20318;-61
2021/01/17 06:00:53;;;;;;;10.03;6.40;;;-3.00;99.90;;;-2.36;91.81;100414.19;5053730;28;20184;-61
2021/01/17 06:03:24;;;;;;;9.67;6.63;;;-3.10;99.90;;;-2.10;90.64;100419.84;5053559;28;20203;-61
2021/01/17 06:05:58;;;;;;;9.93;6.67;;;-3.00;99.90;;;-1.87;89.99;100414.25;5053208;28;20273;-61
2021/01/17 06:08:27;;;;;;;8.10;6.23;;;-2.90;99.90;;;-1.63;88.50;100412.09;5053510;28;20267;-62
2021/01/17 06:11:06;;;;;;;10.80;6.30;;;-2.80;99.90;;;-1.79;89.56;100411.75;5053339;28;20672;-61
2021/01/17 06:13:38;;;;;;;9.57;6.40;;;-2.80;99.90;;;-1.73;89.13;100413.03;5053270;28;20267;-62
2021/01/17 06:16:28;;;;;;;10.60;7.10;;;-2.70;99.90;;;-1.75;88.51;100410.53;5053506;28;20188;-61
2021/01/17 06:18:56;;;;;;;10.17;6.53;;;-2.70;99.90;;;-2.12;90.83;100416.50;5053370;28;20197;-61
2021/01/17 06:21:25;;;;;;;10.53;7.67;;;-2.80;99.90;;;-2.59;93.13;100421.41;5053045;28;20226;-62
2021/01/17 06:23:59;;;;;;;9.73;7.03;;;-3.00;99.90;;;-2.34;93.46;100421.94;5053209;28;20233;-61
2021/01/17 06:26:30;;;;;;;11.43;7.30;;;-3.10;99.90;;;-2.41;93.17;100413.75;5052784;28;20708;-61
2021/01/17 06:29:01;;;;;;;10.27;7.23;;;-3.10;99.90;;;-2.70;94.49;100413.56;5053042;28;20635;-61
2021/01/17 06:31:31;;;;;;;10.30;7.40;;;-3.30;99.90;;;-2.84;95.32;100431.53;5052756;28;20335;-61
2021/01/17 06:34:05;;;;;;;8.87;6.30;;;-3.40;99.90;;;-2.82;95.94;100426.94;5052613;28;20667;-61
2021/01/17 06:36:34;;;;;;;10.57;7.20;;;-3.50;99.90;;;-2.16;92.35;100429.13;5052178;28;20624;-62
2021/01/17 06:39:03;;;;;;;9.70;6.63;;;-3.30;99.90;;;-1.84;89.71;100421.03;5052537;28;20199;-62
2021/01/17 06:41:39;;;;;;;10.10;6.93;;;-3.10;99.90;;;-2.39;91.50;100424.16;5052284;28;20207;-61
2021/01/17 06:44:10;;;;;;;11.50;7.30;;;-3.10;99.90;;;-2.63;93.74;100425.28;5052509;28;20188;-61
2021/01/17 06:46:43;;;;;;;10.53;7.37;;;-3.20;99.90;;;-2.86;95.46;100428.97;5052366;28;20180;-61
2021/01/17 06:49:21;;;;;;;10.77;7.40;;;-3.40;99.90;;;-2.97;96.47;100441.38;5052621;28;20190;-60
2021/01/17 06:51:50;;;;;;;10.43;7.00;;;-3.40;99.90;;;-2.17;92.82;100435.38;5052294;28;20206;-61
2021/01/17 06:54:20;;;;;;;9.83;7.37;;;-3.20;99.90;;;-2.07;91.90;100430.13;5052281;28;20203;-61
2021/01/17 06:56:50;;;;;;;9.57;7.03;;;-3.10;99.90;;;-2.41;92.88;100439.25;5052248;28;20198;-62
2021/01/17 06:59:33;;;;;;;10.50;7.40;;;-3.20;99.90;;;-2.85;95.50;100435.09;5052172;28;20233;-62
2021/01/17 07:02:36;;;;;;;12.27;8.03;;;-3.30;99.90;;;-2.69;95.83;100435.50;5052023;28;20233;-61
2021/01/17 07:06:01;;;;;;;10.90;7.37;;;-3.40;99.90;;;-2.74;96.04;100438.50;5050066;28;20233;-62
2021/01/17 07:08:52;;;;;;;13.97;8.10;;;-3.40;99.90;;;-2.36;94.41;100442.34;5043343;28;20669;-62
2021/01/17 07:11:48;;;;;;;13.60;7.50;;;-3.30;99.90;;;-2.39;94.05;100451.38;5045438;28;20285;-61
2021/01/17 07:14:17;;;;;;;10.47;7.23;;;-3.30;99.90;;;-2.55;94.87;100450.97;5051661;28;20640;-62
2021/01/17 07:16:49;;;;;;;11.53;7.70;;;-3.30;99.90;;;-2.77;96.39;100444.03;5052169;28;20239;-62
2021/01/17 07:19:21;;;;;;;10.40;7.53;;;-3.40;99.90;;;-2.75;97.12;100454.44;5051840;28;20250;-62
2021/01/17 07:21:52;;;;;;;10.40;7.70;;;-3.40;99.90;;;-2.54;96.07;100452.66;5052109;28;20198;-62
2021/01/17 07:24:21;;;;;;;12.73;7.47;;;-3.40;99.90;;;-2.52;95.69;100450.75;5053493;28;20273;-62
2021/01/17 07:27:11;;;;;;;10.80;7.50;;;-3.40;99.90;;;-2.56;95.81;100457.22;5054417;28;20710;-62
2021/01/17 07:29:43;;;;;;;12.27;7.77;;;-3.30;99.90;;;-2.44;95.90;100455.34;5052990;28;20188;-62
2021/01/17 07:32:33;;;;;;;14.07;7.93;;;-3.30;99.90;;;-2.29;95.19;100454.03;5052032;28;20640;-61
2021/01/17 07:35:11;;;;;;;12.17;7.70;;;-3.30;99.90;;;-2.23;94.26;100448.25;5051769;28;20559;-61
2021/01/17 07:37:43;;;;;;;11.33;7.73;;;-3.20;99.90;;;-2.24;94.61;100447.41;5051827;28;20235;-62
2021/01/17 07:40:13;;;;;;;14.23;8.83;;;-3.10;99.90;;;-2.25;94.42;100458.09;5051365;28;20196;-62
2021/01/17 07:42:40;;;;;;;12.67;7.90;;;-3.10;99.90;;;-2.16;93.91;100459.94;5052120;28;20212;-62
2021/01/17 07:45:19;;;;;;;11.07;7.10;;;-3.00;99.90;;;-2.12;93.23;100464.00;5051863;28;20208;-62
2021/01/17 07:47:47;;;;;;;12.30;7.90;;;-2.90;99.90;;;-2.01;92.45;100463.91;5051640;28;20195;-62
2021/01/17 07:50:15;;;;;;;12.33;7.60;;;-2.90;99.90;;;-1.79;90.71;100466.34;5051342;28;20747;-62
2021/01/17 07:52:55;;;;;;;12.57;8.03;;;-2.80;99.90;;;-1.90;90.99;100472.56;5051297;28;20232;-62
2021/01/17 07:55:23;;;;;;;9.67;7.00;;;-2.70;99.90;;;-1.82;90.68;100478.00;5051191;28;20227;-62
2021/01/17 07:57:52;;;;;;;10.13;7.70;;;-2.60;99.90;;;-1.60;90.20;100474.34;5051449;28;20262;-62
2021/01/17 08:00:25;;;;;;;12.33;7.57;;;-2.60;99.90;;;-1.36;89.18;100480.09;5051097;28;20209;-62
2021/01/17 08:02:54;;;;;;;9.37;7.33;;;-2.40;99.90;;;-1.36;88.73;100480.09;5051342;28;20216;-61
2021/01/17 08:05:48;;;;;;;9.93;7.23;;;-2.40;99.90;;;-1.27;87.45;100479.28;5051608;28;20235;-62
2021/01/17 08:08:48;;;;;;;10.90;7.40;;;-2.30;99.90;;;-1.25;87.55;100477.31;5051545;28;20221;-62
2021/01/17 08:11:42;;;;;;;12.57;8.33;;;-2.20;99.90;;;-1.12;86.63;100485.84;5051619;28;20202;-62
2021/01/17 08:14:25;;;;;;;11.77;8.63;;;-2.10;99.90;;;-1.03;85.97;100485.00;5051548;28;20307;-63
2021/01/17 08:17:11;;;;;;;17.37;10.30;;;-2.00;99.90;;;-0.97;85.91;100475.69;5051810;28;20538;-63
2021/01/17 08:19:43;;;;;;;13.97;8.70;;;-1.90;99.90;;;-0.99;85.96;100475.84;5051501;28;20276;-62
2021/01/17 08:22:47;;;;;;;12.23;7.70;;;-1.90;99.90;;;-1.03;86.47;100487.66;5052282;28;20251;-62
2021/01/17 08:25:49;;;;;;;11.30;7.70;;;-1.80;99.90;;;-0.83;84.01;100491.16;5051712;28;20280;-62
2021/01/17 08:28:41;;;;;;;9.43;7.17;;;-1.70;99.90;;;-0.71;82.91;100485.56;5052022;28;20271;-63
2021/01/17 08:31:44;;;;;;;9.23;6.93;;;-1.70;99.90;;;-0.61;81.02;100485.56;5054121;28;20219;-63
2021/01/17 08:34:15;;;;;;;11.03;7.70;;;-1.60;99.90;;;-0.78;82.84;100479.19;5051823;28;20210;-62
2021/01/17 08:36:44;;;;;;;11.37;8.03;;;-1.60;99.90;;;-0.86;83.31;100486.16;5051510;28;20283;-62
2021/01/17 08:39:12;;;;;;;10.80;7.77;;;-1.60;99.90;;;-0.38;81.49;100481.63;5051390;28;20322;-62
2021/01/17 08:41:45;;;;;;;10.97;7.57;;;-1.50;99.90;;;-0.14;79.96;100488.16;5051742;28;20227;-62
2021/01/17 08:44:15;;;;;;;10.07;7.40;;;-1.30;99.90;;;-0.13;79.81;100491.59;5051684;28;20215;-62
2021/01/17 08:46:43;;;;;;;12.17;7.83;;;-1.20;99.90;;;-0.22;80.53;100493.31;5051097;28;20277;-62
2021/01/17 08:49:11;;;;;;;12.60;8.07;;;-1.10;99.90;;;-0.14;80.69;100485.50;5051149;28;20304;-62
2021/01/17 08:51:38;;;;;;;12.57;8.53;;;-1.00;99.90;;;0.09;79.96;100493.91;5050734;28;20592;-63
2021/01/17 08:54:26;;;;;;;12.67;8.30;;;-0.90;99.90;;;0.29;76.93;100497.34;5051246;28;20316;-62
2021/01/17 08:56:54;;;;;;;11.07;8.13;;;-0.80;99.90;;;0.26;76.15;100497.59;5051973;28;20264;-62
2021/01/17 08:59:38;;;;;;;11.63;7.97;;;-0.60;99.90;;;0.37;77.16;100506.22;5051271;28;20225;-62
2021/01/17 09:02:05;;;;;;;13.23;8.80;;;-0.50;99.90;;;0.64;74.83;100503.59;5051105;28;20225;-62
2021/01/17 09:04:33;;;;;;;11.27;8.20;;;-0.40;99.90;;;0.81;74.41;100504.59;5050757;28;20212;-62
2021/01/17 09:07:01;;;;;;;11.83;8.43;;;-0.20;99.90;;;1.03;73.34;100510.28;5050821;28;20237;-64
2021/01/17 09:09:28;;;;;;;11.83;8.37;;;-0.10;99.90;;;1.05;73.10;100518.94;5048199;28;20287;-61
2021/01/17 09:12:11;;;;;;;11.20;8.20;;;0.00;99.90;;;1.09;72.13;100517.66;5053123;28;20330;-63
2021/01/17 09:14:39;;;;;;;10.97;8.20;;;0.10;99.90;;;1.18;71.14;100521.22;5054418;28;20187;-63
2021/01/17 09:17:12;;;;;;;13.23;8.43;;;0.10;99.90;;;1.10;70.39;100527.28;5053995;28;20576;-63
2021/01/17 09:19:39;;;;;;;10.27;7.67;;;0.20;99.90;;;0.86;70.96;100534.97;5054374;28;20195;-61
2021/01/17 09:22:09;;;;;;;11.07;8.13;;;0.10;99.90;;;0.77;70.70;100535.88;5054276;28;20201;-61
2021/01/17 09:24:38;;;;;;;9.83;7.77;;;0.00;99.90;;;0.74;71.63;100544.13;5053759;28;20583;-62
2021/01/17 09:27:10;;;;;;;12.43;8.03;;;-0.10;99.90;;;0.87;70.91;100547.25;5053930;28;20634;-62
2021/01/17 09:29:40;;;;;;;12.07;8.33;;;-0.10;99.90;;;0.93;70.73;100537.88;5054083;28;20259;-62
2021/01/17 09:32:11;;;;;;;9.87;7.20;;;0.00;99.90;;;0.56;72.76;100547.69;5054094;28;20206;-62
2021/01/17 09:34:42;;;;;;;10.17;7.57;;;-0.10;99.90;;;0.90;72.06;100543.44;5054216;28;20269;-62
2021/01/17 09:37:12;;;;;;;10.93;8.20;;;-0.10;99.90;;;1.02;71.57;100539.63;5054289;28;20226;-62
2021/01/17 09:39:42;;;;;;;11.53;7.93;;;0.10;99.90;;;0.86;71.73;100544.75;5053499;28;20200;-62
2021/01/17 09:42:13;;;;;;;10.73;7.80;;;0.10;99.90;;;1.00;71.25;100546.88;5053676;28;20229;-61
2021/01/17 09:44:43;;;;;;;11.20;8.23;;;0.10;99.90;;;1.00;70.93;100552.19;5054023;28;20231;-61
2021/01/17 09:47:15;;;;;;;11.77;8.07;;;0.10;99.90;;;0.85;71.37;100551.88;5053830;28;20248;-62
2021/01/17 09:49:44;;;;;;;10.73;7.77;;;0.10;99.90;;;0.88;71.31;100566.66;5053335;28;20227;-62
2021/01/17 09:52:16;;;;;;;12.90;8.50;;;0.10;99.90;;;1.00;71.51;100558.31;5050881;28;20241;-62
2021/01/17 09:54:44;;;;;;;11.60;7.97;;;0.10;99.90;;;1.01;70.67;100561.81;5041408;28;20209;-62
2021/01/17 09:57:18;;;;;;;11.87;7.80;;;0.20;99.90;;;1.04;70.28;100564.16;5042374;28;20232;-62
2021/01/17 09:59:49;;;;;;;11.03;7.83;;;0.20;99.90;;;1.08;70.50;100565.56;5041771;28;20664;-62
2021/01/17 10:02:20;;;;;;;10.40;7.50;;;0.20;99.90;;;1.02;71.00;100563.47;5042750;28;20655;-62
2021/01/17 10:04:48;;;;;;;12.43;8.50;;;0.20;99.90;;;0.98;71.66;100570.09;5035999;28;20202;-62
2021/01/17 10:07:18;;;;;;;12.23;8.33;;;0.20;99.90;;;1.11;71.27;100578.50;5033386;28;20259;-62
2021/01/17 10:09:45;;;;;;;11.97;8.37;;;0.20;99.90;;;0.91;70.72;100574.31;5041122;28;20288;-61
2021/01/17 10:12:13;;;;;;;10.83;7.67;;;0.20;99.90;;;0.83;70.47;100569.72;5052843;28;20259;-62
2021/01/17 10:14:42;;;;;;;12.70;8.40;;;0.10;99.90;;;1.02;70.18;100563.47;5052966;28;20237;-61
2021/01/17 10:17:09;;;;;;;12.73;8.23;;;0.10;99.90;;;1.07;70.48;100574.47;5052907;28;20555;-62
2021/01/17 10:19:40;;;;;;;10.47;7.30;;;0.20;99.90;;;1.05;69.85;100568.47;5053243;28;20258;-62
2021/01/17 10:22:12;;;;;;;10.17;8.03;;;0.20;99.90;;;1.00;70.09;100568.94;5052860;28;20198;-62
2021/01/17 10:24:39;;;;;;;11.60;8.03;;;0.20;99.90;;;0.78;72.16;100568.50;5052754;28;20187;-62
2021/01/17 10:27:09;;;;;;;13.97;8.43;;;0.10;99.90;;;1.13;71.43;100579.19;5052946;28;20201;-62
2021/01/17 10:29:39;;;;;;;10.30;8.00;;;0.10;99.90;;;1.22;70.94;100565.88;5052828;28;20531;-62